sensor_id;sensor_type;location;lat;lon;timestamp;pressure;altitude;pressure_sealevel;temperature;humidity
70133;BME280;57495;49.922;7.966;2023-04-29T00:00:45;99626.03;;;12.46;100.00
70133;BME280;57495;49.922;7.966;2023-04-29T00:02:46;99621.66;;;12.45;100.00
70133;BME280;57495;49.922;7.966;2023-04-29T00:04:48;99623.66;;;12.43;100.00
70133;BME280;57495;49.922;7.966;2023-04-29T00:06:49;99632.38;;;12.45;100.00
70133;BME280;57495;49.922;7.966;2023-04-29T00:08:51;99636.41;;;12.41;100.00
70133;BME280;57495;49.922;7.966;2023-04-29T00:10:52;99630.03;;;12.42;100.00
70133;BME280;57495;49.922;7.966;2023-04-29T00:12:55;99631.06;;;12.49;100.00
70133;BME280;57495;49.922;7.966;2023-04-29T00:14:56;99647.13;;;12.41;100.00
70133;BME280;57495;49.922;7.966;2023-04-29T00:16:57;99636.06;;;12.44;100.00
70133;BME280;57495;49.922;7.966;2023-04-29T00:18:59;99641.91;;;12.31;100.00
70133;BME280;57495;49.922;7.966;2023-04-29T00:21:01;99638.06;;;12.34;100.00
70133;BME280;57495;49.922;7.966;2023-04-29T00:23:05;99628.00;;;12.36;100.00
70133;BME280;57495;49.922;7.966;2023-04-29T00:25:07;99635.38;;;12.34;100.00
70133;BME280;57495;49.922;7.966;2023-04-29T00:27:09;99631.00;;;12.25;100.00
70133;BME280;57495;49.922;7.966;2023-04-29T00:29:12;99632.63;;;12.09;100.00
70133;BME280;57495;49.922;7.966;2023-04-29T00:31:14;99636.47;;;12.07;100.00
70133;BME280;57495;49.922;7.966;2023-04-29T00:33:15;99633.91;;;11.97;100.00
70133;BME280;57495;49.922;7.966;2023-04-29T00:35:17;99634.56;;;11.91;100.00
70133;BME280;57495;49.922;7.966;2023-04-29T00:37:18;99626.47;;;11.83;100.00
70133;BME280;57495;49.922;7.966;2023-04-29T00:39:19;99634.25;;;11.94;100.00
70133;BME280;57495;49.922;7.966;2023-04-29T00:41:21;99637.19;;;11.83;100.00
70133;BME280;57495;49.922;7.966;2023-04-29T00:43:23;99635.00;;;11.86;100.00
70133;BME280;57495;49.922;7.966;2023-04-29T00:45:25;99629.31;;;11.81;100.00
70133;BME280;57495;49.922;7.966;2023-04-29T00:47:27;99636.53;;;11.89;100.00
70133;BME280;57495;49.922;7.966;2023-04-29T00:49:28;99636.84;;;11.86;100.00
70133;BME280;57495;49.922;7.966;2023-04-29T00:51:30;99641.16;;;11.78;100.00
70133;BME280;57495;49.922;7.966;2023-04-29T00:53:33;99642.19;;;11.86;100.00
70133;BME280;57495;49.922;7.966;2023-04-29T00:55:35;99638.53;;;11.87;100.00
70133;BME280;57495;49.922;7.966;2023-04-29T00:57:37;99645.16;;;11.74;100.00
70133;BME280;57495;49.922;7.966;2023-04-29T00:59:39;99640.31;;;11.70;100.00
70133;BME280;57495;49.922;7.966;2023-04-29T01:01:41;99644.09;;;11.59;100.00
70133;BME280;57495;49.922;7.966;2023-04-29T01:03:44;99650.03;;;11.45;100.00
70133;BME280;57495;49.922;7.966;2023-04-29T01:05:54;99645.31;;;11.38;100.00
70133;BME280;57495;49.922;7.966;2023-04-29T01:08:12;99647.09;;;11.30;100.00
70133;BME280;57495;49.922;7.966;2023-04-29T01:10:21;99649.06;;;11.28;100.00
70133;BME280;57495;49.922;7.966;2023-04-29T01:12:32;99648.97;;;11.37;100.00
70133;BME280;57495;49.922;7.966;2023-04-29T01:14:34;99643.31;;;11.40;100.00
70133;BME280;57495;49.922;7.966;2023-04-29T01:16:46;99643.72;;;11.28;100.00
70133;BME280;57495;49.922;7.966;2023-04-29T01:18:54;99638.91;;;11.31;100.00
70133;BME280;57495;49.922;7.966;2023-04-29T01:20:56;99641.63;;;11.39;100.00
70133;BME280;57495;49.922;7.966;2023-04-29T01:22:58;99650.47;;;11.40;100.00
70133;BME280;57495;49.922;7.966;2023-04-29T01:25:01;99649.91;;;11.28;100.00
70133;BME280;57495;49.922;7.966;2023-04-29T01:27:09;99657.47;;;11.33;100.00
70133;BME280;57495;49.922;7.966;2023-04-29T01:29:21;99656.31;;;11.35;100.00
70133;BME280;57495;49.922;7.966;2023-04-29T01:31:27;99653.50;;;11.37;100.00
70133;BME280;57495;49.922;7.966;2023-04-29T01:33:39;99649.28;;;11.34;100.00
70133;BME280;57495;49.922;7.966;2023-04-29T01:35:51;99649.59;;;11.31;100.00
70133;BME280;57495;49.922;7.966;2023-04-29T01:38:03;99651.28;;;11.32;100.00
70133;BME280;57495;49.922;7.966;2023-04-29T01:40:15;99646.94;;;11.31;100.00
70133;BME280;57495;49.922;7.966;2023-04-29T01:42:24;99653.41;;;11.29;100.00
70133;BME280;57495;49.922;7.966;2023-04-29T01:44:28;99656.97;;;11.29;100.00
70133;BME280;57495;49.922;7.966;2023-04-29T01:46:31;99647.75;;;11.32;100.00
70133;BME280;57495;49.922;7.966;2023-04-29T01:48:32;99648.41;;;11.26;100.00
70133;BME280;57495;49.922;7.966;2023-04-29T01:50:34;99650.22;;;11.25;100.00
70133;BME280;57495;49.922;7.966;2023-04-29T01:52:35;99651.59;;;11.29;100.00
70133;BME280;57495;49.922;7.966;2023-04-29T01:54:37;99656.63;;;11.32;100.00
70133;BME280;57495;49.922;7.966;2023-04-29T01:56:40;99652.03;;;11.43;100.00
70133;BME280;57495;49.922;7.966;2023-04-29T01:58:41;99652.13;;;11.33;100.00
70133;BME280;57495;49.922;7.966;2023-04-29T02:00:43;99653.78;;;11.34;100.00
70133;BME280;57495;49.922;7.966;2023-04-29T02:02:44;99650.97;;;11.35;100.00
70133;BME280;57495;49.922;7.966;2023-04-29T02:04:46;99657.06;;;11.46;100.00
70133;BME280;57495;49.922;7.966;2023-04-29T02:06:47;99656.88;;;11.47;100.00
70133;BME280;57495;49.922;7.966;2023-04-29T02:08:49;99652.03;;;11.43;100.00
70133;BME280;57495;49.922;7.966;2023-04-29T02:10:51;99662.78;;;11.51;100.00
70133;BME280;57495;49.922;7.966;2023-04-29T02:12:55;99655.59;;;11.51;100.00
70133;BME280;57495;49.922;7.966;2023-04-29T02:14:56;99651.75;;;11.54;100.00
70133;BME280;57495;49.922;7.966;2023-04-29T02:16:59;99654.94;;;11.57;100.00
70133;BME280;57495;49.922;7.966;2023-04-29T02:19:00;99651.75;;;11.54;100.00
70133;BME280;57495;49.922;7.966;2023-04-29T02:21:02;99657.91;;;11.46;100.00
70133;BME280;57495;49.922;7.966;2023-04-29T02:23:03;99659.56;;;11.47;100.00
70133;BME280;57495;49.922;7.966;2023-04-29T02:25:05;99656.72;;;11.49;100.00
70133;BME280;57495;49.922;7.966;2023-04-29T02:27:07;99665.66;;;11.57;100.00
70133;BME280;57495;49.922;7.966;2023-04-29T02:29:10;99668.81;;;11.53;100.00
70133;BME280;57495;49.922;7.966;2023-04-29T02:31:11;99669.19;;;11.58;100.00
70133;BME280;57495;49.922;7.966;2023-04-29T02:33:13;99671.84;;;11.58;100.00
70133;BME280;57495;49.922;7.966;2023-04-29T02:35:14;99675.59;;;11.65;100.00
70133;BME280;57495;49.922;7.966;2023-04-29T02:37:16;99671.25;;;11.64;100.00
70133;BME280;57495;49.922;7.966;2023-04-29T02:39:17;99683.94;;;11.62;100.00
70133;BME280;57495;49.922;7.966;2023-04-29T02:41:20;99682.56;;;11.58;100.00
70133;BME280;57495;49.922;7.966;2023-04-29T02:43:21;99679.59;;;11.61;100.00
70133;BME280;57495;49.922;7.966;2023-04-29T02:45:24;99677.97;;;11.68;100.00
70133;BME280;57495;49.922;7.966;2023-04-29T02:47:25;99684.53;;;11.74;100.00
70133;BME280;57495;49.922;7.966;2023-04-29T02:49:27;99689.38;;;11.78;100.00
70133;BME280;57495;49.922;7.966;2023-04-29T02:51:28;99683.19;;;11.78;100.00
70133;BME280;57495;49.922;7.966;2023-04-29T02:53:32;99684.56;;;11.82;100.00
70133;BME280;57495;49.922;7.966;2023-04-29T02:55:34;99689.06;;;11.82;100.00
70133;BME280;57495;49.922;7.966;2023-04-29T02:57:35;99684.38;;;11.75;100.00
70133;BME280;57495;49.922;7.966;2023-04-29T02:59:37;99692.75;;;11.80;100.00
70133;BME280;57495;49.922;7.966;2023-04-29T03:01:39;99685.19;;;11.76;100.00
70133;BME280;57495;49.922;7.966;2023-04-29T03:03:42;99688.25;;;11.81;100.00
70133;BME280;57495;49.922;7.966;2023-04-29T03:05:44;99686.56;;;11.80;100.00
70133;BME280;57495;49.922;7.966;2023-04-29T03:07:45;99689.59;;;11.85;100.00
70133;BME280;57495;49.922;7.966;2023-04-29T03:09:47;99691.38;;;11.76;100.00
70133;BME280;57495;49.922;7.966;2023-04-29T03:11:48;99692.03;;;11.70;100.00
70133;BME280;57495;49.922;7.966;2023-04-29T03:13:49;99688.34;;;11.71;100.00
70133;BME280;57495;49.922;7.966;2023-04-29T03:15:51;99693.38;;;11.74;100.00
70133;BME280;57495;49.922;7.966;2023-04-29T03:17:54;99701.41;;;11.74;100.00
70133;BME280;57495;49.922;7.966;2023-04-29T03:19:55;99698.38;;;11.69;100.00
70133;BME280;57495;49.922;7.966;2023-04-29T03:21:57;99699.56;;;11.75;100.00
70133;BME280;57495;49.922;7.966;2023-04-29T03:23:58;99704.75;;;11.68;100.00
70133;BME280;57495;49.922;7.966;2023-04-29T03:26:00;99706.47;;;11.77;100.00
70133;BME280;57495;49.922;7.966;2023-04-29T03:28:01;99699.50;;;11.85;100.00
70133;BME280;57495;49.922;7.966;2023-04-29T03:30:04;99701.16;;;11.86;100.00
70133;BME280;57495;49.922;7.966;2023-04-29T03:32:06;99697.41;;;11.78;100.00
70133;BME280;57495;49.922;7.966;2023-04-29T03:34:09;99696.13;;;11.83;100.00
70133;BME280;57495;49.922;7.966;2023-04-29T03:36:10;99700.72;;;11.90;100.00
70133;BME280;57495;49.922;7.966;2023-04-29T03:38:12;99705.91;;;11.92;100.00
70133;BME280;57495;49.922;7.966;2023-04-29T03:40:14;99702.22;;;11.93;100.00
70133;BME280;57495;49.922;7.966;2023-04-29T03:42:15;99703.59;;;11.97;100.00
70133;BME280;57495;49.922;7.966;2023-04-29T03:44:16;99702.44;;;11.99;100.00
70133;BME280;57495;49.922;7.966;2023-04-29T03:46:18;99709.28;;;11.94;100.00
70133;BME280;57495;49.922;7.966;2023-04-29T03:48:19;99711.31;;;12.00;100.00
70133;BME280;57495;49.922;7.966;2023-04-29T03:50:23;99713.63;;;11.95;100.00
70133;BME280;57495;49.922;7.966;2023-04-29T03:52:25;99713.16;;;11.99;100.00
70133;BME280;57495;49.922;7.966;2023-04-29T03:54:27;99714.50;;;12.04;100.00
70133;BME280;57495;49.922;7.966;2023-04-29T03:56:28;99714.00;;;12.00;100.00
70133;BME280;57495;49.922;7.966;2023-04-29T03:58:29;99716.00;;;11.98;100.00
70133;BME280;57495;49.922;7.966;2023-04-29T04:00:31;99718.47;;;11.91;100.00
70133;BME280;57495;49.922;7.966;2023-04-29T04:02:33;99722.59;;;11.86;100.00
70133;BME280;57495;49.922;7.966;2023-04-29T04:04:35;99723.09;;;11.89;100.00
70133;BME280;57495;49.922;7.966;2023-04-29T04:06:38;99717.63;;;11.91;100.00
70133;BME280;57495;49.922;7.966;2023-04-29T04:08:39;99717.91;;;11.88;100.00
70133;BME280;57495;49.922;7.966;2023-04-29T04:10:41;99724.66;;;11.92;100.00
70133;BME280;57495;49.922;7.966;2023-04-29T04:12:43;99720.44;;;11.89;100.00
70133;BME280;57495;49.922;7.966;2023-04-29T04:14:45;99717.03;;;11.79;100.00
70133;BME280;57495;49.922;7.966;2023-04-29T04:16:46;99723.53;;;11.76;100.00
70133;BME280;57495;49.922;7.966;2023-04-29T04:18:49;99727.75;;;11.79;100.00
70133;BME280;57495;49.922;7.966;2023-04-29T04:20:51;99725.75;;;11.81;100.00
70133;BME280;57495;49.922;7.966;2023-04-29T04:22:53;99732.78;;;11.82;100.00
70133;BME280;57495;49.922;7.966;2023-04-29T04:24:55;99733.00;;;11.89;100.00
70133;BME280;57495;49.922;7.966;2023-04-29T04:26:56;99734.38;;;11.93;100.00
70133;BME280;57495;49.922;7.966;2023-04-29T04:28:58;99740.41;;;11.95;100.00
70133;BME280;57495;49.922;7.966;2023-04-29T04:30:59;99742.28;;;11.94;100.00
70133;BME280;57495;49.922;7.966;2023-04-29T04:33:01;99749.50;;;12.02;100.00
70133;BME280;57495;49.922;7.966;2023-04-29T04:35:03;99748.00;;;11.99;100.00
70133;BME280;57495;49.922;7.966;2023-04-29T04:37:05;99746.47;;;11.97;100.00
70133;BME280;57495;49.922;7.966;2023-04-29T04:39:08;99752.03;;;12.04;100.00
70133;BME280;57495;49.922;7.966;2023-04-29T04:41:10;99762.22;;;12.00;100.00
70133;BME280;57495;49.922;7.966;2023-04-29T04:43:11;99765.13;;;12.07;100.00
70133;BME280;57495;49.922;7.966;2023-04-29T04:45:12;99763.28;;;12.07;100.00
70133;BME280;57495;49.922;7.966;2023-04-29T04:47:14;99768.94;;;12.04;100.00
70133;BME280;57495;49.922;7.966;2023-04-29T04:49:15;99773.63;;;12.02;100.00
70133;BME280;57495;49.922;7.966;2023-04-29T04:51:17;99779.81;;;12.03;100.00
70133;BME280;57495;49.922;7.966;2023-04-29T04:53:18;99772.56;;;11.95;100.00
70133;BME280;57495;49.922;7.966;2023-04-29T04:55:23;99773.19;;;11.89;100.00
70133;BME280;57495;49.922;7.966;2023-04-29T04:57:25;99780.91;;;11.92;100.00
70133;BME280;57495;49.922;7.966;2023-04-29T04:59:26;99783.78;;;11.90;100.00
70133;BME280;57495;49.922;7.966;2023-04-29T05:01:28;99783.28;;;11.95;100.00
70133;BME280;57495;49.922;7.966;2023-04-29T05:03:29;99788.00;;;12.01;100.00
70133;BME280;57495;49.922;7.966;2023-04-29T05:05:32;99785.16;;;11.94;100.00
70133;BME280;57495;49.922;7.966;2023-04-29T05:07:33;99792.50;;;11.92;100.00
70133;BME280;57495;49.922;7.966;2023-04-29T05:09:35;99796.00;;;11.93;100.00
70133;BME280;57495;49.922;7.966;2023-04-29T05:11:37;99798.28;;;11.88;100.00
70133;BME280;57495;49.922;7.966;2023-04-29T05:13:39;99806.06;;;11.91;100.00
70133;BME280;57495;49.922;7.966;2023-04-29T05:15:40;99807.09;;;11.80;100.00
70133;BME280;57495;49.922;7.966;2023-04-29T05:17:42;99809.34;;;11.67;100.00
70133;BME280;57495;49.922;7.966;2023-04-29T05:19:43;99822.50;;;11.78;100.00
70133;BME280;57495;49.922;7.966;2023-04-29T05:21:44;99815.97;;;11.80;100.00
70133;BME280;57495;49.922;7.966;2023-04-29T05:23:46;99822.44;;;11.70;100.00
70133;BME280;57495;49.922;7.966;2023-04-29T05:25:47;99825.66;;;11.73;100.00
70133;BME280;57495;49.922;7.966;2023-04-29T05:27:50;99818.38;;;11.66;100.00
70133;BME280;57495;49.922;7.966;2023-04-29T05:29:52;99829.31;;;11.72;100.00
70133;BME280;57495;49.922;7.966;2023-04-29T05:31:54;99828.16;;;11.75;100.00
70133;BME280;57495;49.922;7.966;2023-04-29T05:33:56;99841.34;;;11.68;100.00
70133;BME280;57495;49.922;7.966;2023-04-29T05:35:57;99840.13;;;11.63;100.00
70133;BME280;57495;49.922;7.966;2023-04-29T05:37:58;99848.47;;;11.77;100.00
70133;BME280;57495;49.922;7.966;2023-04-29T05:40:00;99841.78;;;11.82;100.00
70133;BME280;57495;49.922;7.966;2023-04-29T05:42:01;99841.41;;;11.76;100.00
70133;BME280;57495;49.922;7.966;2023-04-29T05:44:04;99846.53;;;11.88;100.00
70133;BME280;57495;49.922;7.966;2023-04-29T05:46:05;99849.69;;;11.83;99.93
70133;BME280;57495;49.922;7.966;2023-04-29T05:48:07;99849.19;;;11.88;99.54
70133;BME280;57495;49.922;7.966;2023-04-29T05:50:09;99855.72;;;11.85;99.25
70133;BME280;57495;49.922;7.966;2023-04-29T05:52:10;99855.56;;;11.87;99.59
70133;BME280;57495;49.922;7.966;2023-04-29T05:54:12;99860.25;;;11.85;98.77
70133;BME280;57495;49.922;7.966;2023-04-29T05:56:13;99858.31;;;11.77;99.20
70133;BME280;57495;49.922;7.966;2023-04-29T05:58:15;99861.53;;;11.80;98.93
70133;BME280;57495;49.922;7.966;2023-04-29T06:00:19;99855.97;;;11.74;98.34
70133;BME280;57495;49.922;7.966;2023-04-29T06:02:20;99864.00;;;11.74;98.05
70133;BME280;57495;49.922;7.966;2023-04-29T06:04:22;99866.19;;;11.78;98.05
70133;BME280;57495;49.922;7.966;2023-04-29T06:06:24;99869.66;;;11.89;98.28
70133;BME280;57495;49.922;7.966;2023-04-29T06:08:25;99868.09;;;11.86;98.89
70133;BME280;57495;49.922;7.966;2023-04-29T06:10:27;99871.19;;;11.91;98.31
70133;BME280;57495;49.922;7.966;2023-04-29T06:12:28;99872.03;;;11.92;97.90
70133;BME280;57495;49.922;7.966;2023-04-29T06:14:30;99865.25;;;11.97;97.33
70133;BME280;57495;49.922;7.966;2023-04-29T06:16:33;99880.44;;;11.97;97.21
70133;BME280;57495;49.922;7.966;2023-04-29T06:18:34;99873.72;;;11.93;96.25
70133;BME280;57495;49.922;7.966;2023-04-29T06:20:37;99865.53;;;11.94;96.32
70133;BME280;57495;49.922;7.966;2023-04-29T06:22:38;99879.63;;;11.96;96.46
70133;BME280;57495;49.922;7.966;2023-04-29T06:24:40;99882.03;;;12.08;95.58
70133;BME280;57495;49.922;7.966;2023-04-29T06:26:41;99883.56;;;12.10;95.90
70133;BME280;57495;49.922;7.966;2023-04-29T06:28:42;99878.91;;;12.12;95.73
70133;BME280;57495;49.922;7.966;2023-04-29T06:30:44;99879.44;;;12.16;96.67
70133;BME280;57495;49.922;7.966;2023-04-29T06:32:47;99885.94;;;12.13;95.28
70133;BME280;57495;49.922;7.966;2023-04-29T06:34:48;99893.19;;;12.21;95.26
70133;BME280;57495;49.922;7.966;2023-04-29T06:36:50;99893.97;;;12.13;94.29
70133;BME280;57495;49.922;7.966;2023-04-29T06:38:51;99896.03;;;12.19;93.22
70133;BME280;57495;49.922;7.966;2023-04-29T06:40:53;99898.03;;;12.17;94.27
70133;BME280;57495;49.922;7.966;2023-04-29T06:42:54;99900.91;;;12.16;92.86
70133;BME280;57495;49.922;7.966;2023-04-29T06:44:56;99903.31;;;12.27;92.04
70133;BME280;57495;49.922;7.966;2023-04-29T06:46:57;99900.97;;;12.32;92.91
70133;BME280;57495;49.922;7.966;2023-04-29T06:49:00;99902.56;;;12.43;92.71
70133;BME280;57495;49.922;7.966;2023-04-29T06:51:02;99912.16;;;12.46;93.01
70133;BME280;57495;49.922;7.966;2023-04-29T06:53:03;99904.16;;;12.54;93.09
70133;BME280;57495;49.922;7.966;2023-04-29T06:55:05;99918.09;;;12.57;92.47
70133;BME280;57495;49.922;7.966;2023-04-29T06:57:07;99910.03;;;12.57;92.91
70133;BME280;57495;49.922;7.966;2023-04-29T06:59:09;99917.44;;;12.64;92.61
70133;BME280;57495;49.922;7.966;2023-04-29T07:01:11;99915.94;;;12.61;92.10
70133;BME280;57495;49.922;7.966;2023-04-29T07:03:13;99920.81;;;12.66;91.62
70133;BME280;57495;49.922;7.966;2023-04-29T07:05:16;99923.41;;;12.49;91.07
70133;BME280;57495;49.922;7.966;2023-04-29T07:07:18;99925.84;;;12.61;91.78
70133;BME280;57495;49.922;7.966;2023-04-29T07:09:20;99930.56;;;12.67;92.02
70133;BME280;57495;49.922;7.966;2023-04-29T07:11:22;99929.75;;;12.74;92.26
70133;BME280;57495;49.922;7.966;2023-04-29T07:13:26;99931.28;;;12.77;91.83
70133;BME280;57495;49.922;7.966;2023-04-29T07:15:28;99940.03;;;12.79;91.48
70133;BME280;57495;49.922;7.966;2023-04-29T07:17:29;99940.56;;;12.83;91.80
70133;BME280;57495;49.922;7.966;2023-04-29T07:19:31;99943.66;;;12.70;90.01
70133;BME280;57495;49.922;7.966;2023-04-29T07:21:34;99945.28;;;12.63;90.32
70133;BME280;57495;49.922;7.966;2023-04-29T07:23:35;99954.41;;;12.70;89.51
70133;BME280;57495;49.922;7.966;2023-04-29T07:25:36;99953.72;;;12.68;88.60
70133;BME280;57495;49.922;7.966;2023-04-29T07:27:38;99963.59;;;12.67;87.68
70133;BME280;57495;49.922;7.966;2023-04-29T07:29:39;99966.78;;;12.71;88.52
70133;BME280;57495;49.922;7.966;2023-04-29T07:31:41;99963.50;;;12.77;87.62
70133;BME280;57495;49.922;7.966;2023-04-29T07:33:43;99968.22;;;12.83;86.83
70133;BME280;57495;49.922;7.966;2023-04-29T07:35:45;99970.59;;;12.86;87.96
70133;BME280;57495;49.922;7.966;2023-04-29T07:37:48;99968.00;;;12.76;88.02
70133;BME280;57495;49.922;7.966;2023-04-29T07:39:49;99965.13;;;12.70;87.12
70133;BME280;57495;49.922;7.966;2023-04-29T07:41:51;99968.88;;;12.77;87.62
70133;BME280;57495;49.922;7.966;2023-04-29T07:43:52;99974.69;;;12.72;86.80
70133;BME280;57495;49.922;7.966;2023-04-29T07:45:53;99975.91;;;12.78;88.23
70133;BME280;57495;49.922;7.966;2023-04-29T07:47:55;99974.72;;;12.81;88.42
70133;BME280;57495;49.922;7.966;2023-04-29T07:49:56;99980.31;;;12.87;88.70
70133;BME280;57495;49.922;7.966;2023-04-29T07:51:58;99985.38;;;12.90;88.82
70133;BME280;57495;49.922;7.966;2023-04-29T07:54:01;99985.28;;;12.74;89.65
70133;BME280;57495;49.922;7.966;2023-04-29T07:56:04;99986.63;;;12.78;88.74
70133;BME280;57495;49.922;7.966;2023-04-29T07:58:06;99988.34;;;12.79;87.83
70133;BME280;57495;49.922;7.966;2023-04-29T08:00:08;99996.00;;;12.74;87.57
70133;BME280;57495;49.922;7.966;2023-04-29T08:02:10;100000.00;;;12.70;88.51
70133;BME280;57495;49.922;7.966;2023-04-29T08:04:11;99995.69;;;12.77;88.81
70133;BME280;57495;49.922;7.966;2023-04-29T08:06:13;99996.19;;;12.81;88.23
70133;BME280;57495;49.922;7.966;2023-04-29T08:08:14;100001.25;;;12.57;89.44
70133;BME280;57495;49.922;7.966;2023-04-29T08:10:18;100008.91;;;12.52;89.33
70133;BME280;57495;49.922;7.966;2023-04-29T08:12:21;100013.97;;;12.55;89.48
70133;BME280;57495;49.922;7.966;2023-04-29T08:14:23;100011.59;;;12.52;90.27
70133;BME280;57495;49.922;7.966;2023-04-29T08:16:24;100019.34;;;12.55;89.91
70133;BME280;57495;49.922;7.966;2023-04-29T08:18:26;100022.72;;;12.57;90.08
70133;BME280;57495;49.922;7.966;2023-04-29T08:20:27;100019.66;;;12.52;90.58
70133;BME280;57495;49.922;7.966;2023-04-29T08:22:29;100021.94;;;12.47;90.04
70133;BME280;57495;49.922;7.966;2023-04-29T08:24:31;100023.41;;;12.60;90.14
70133;BME280;57495;49.922;7.966;2023-04-29T08:26:35;100027.78;;;12.61;91.47
70133;BME280;57495;49.922;7.966;2023-04-29T08:28:37;100021.00;;;12.56;90.37
70133;BME280;57495;49.922;7.966;2023-04-29T08:30:39;100022.06;;;12.64;90.10
70133;BME280;57495;49.922;7.966;2023-04-29T08:32:40;100020.19;;;12.56;91.04
70133;BME280;57495;49.922;7.966;2023-04-29T08:34:42;100030.06;;;12.55;90.77
70133;BME280;57495;49.922;7.966;2023-04-29T08:36:43;100026.50;;;12.73;91.21
70133;BME280;57495;49.922;7.966;2023-04-29T08:38:45;100029.25;;;12.81;91.04
70133;BME280;57495;49.922;7.966;2023-04-29T08:40:48;100042.00;;;12.79;90.80
70133;BME280;57495;49.922;7.966;2023-04-29T08:42:52;100035.25;;;12.75;90.26
70133;BME280;57495;49.922;7.966;2023-04-29T08:44:54;100040.31;;;12.78;90.59
70133;BME280;57495;49.922;7.966;2023-04-29T08:46:57;100036.81;;;12.60;89.91
70133;BME280;57495;49.922;7.966;2023-04-29T08:49:01;100040.72;;;12.65;91.32
70133;BME280;57495;49.922;7.966;2023-04-29T08:51:03;100045.25;;;12.65;91.70
70133;BME280;57495;49.922;7.966;2023-04-29T08:53:05;100045.34;;;12.55;92.06
70133;BME280;57495;49.922;7.966;2023-04-29T08:55:07;100049.84;;;12.54;92.88
70133;BME280;57495;49.922;7.966;2023-04-29T08:57:09;100050.53;;;12.56;92.59
70133;BME280;57495;49.922;7.966;2023-04-29T08:59:14;100055.06;;;12.56;92.20
70133;BME280;57495;49.922;7.966;2023-04-29T09:01:15;100054.84;;;12.49;92.39
70133;BME280;57495;49.922;7.966;2023-04-29T09:03:23;100057.88;;;12.54;93.00
70133;BME280;57495;49.922;7.966;2023-04-29T09:05:25;100060.41;;;12.56;93.24
70133;BME280;57495;49.922;7.966;2023-04-29T09:07:27;100064.66;;;12.59;93.62
70133;BME280;57495;49.922;7.966;2023-04-29T09:09:29;100068.63;;;12.54;92.71
70133;BME280;57495;49.922;7.966;2023-04-29T09:11:31;100069.38;;;12.65;92.99
70133;BME280;57495;49.922;7.966;2023-04-29T09:13:33;100070.38;;;12.64;93.20
70133;BME280;57495;49.922;7.966;2023-04-29T09:15:36;100074.66;;;12.56;92.63
70133;BME280;57495;49.922;7.966;2023-04-29T09:17:40;100080.66;;;12.50;93.34
70133;BME280;57495;49.922;7.966;2023-04-29T09:19:43;100082.25;;;12.43;93.87
70133;BME280;57495;49.922;7.966;2023-04-29T09:21:53;100092.25;;;12.33;95.06
70133;BME280;57495;49.922;7.966;2023-04-29T09:23:57;100087.28;;;12.10;97.00
70133;BME280;57495;49.922;7.966;2023-04-29T09:25:58;100094.06;;;12.14;96.39
70133;BME280;57495;49.922;7.966;2023-04-29T09:28:13;100091.19;;;11.98;98.38
70133;BME280;57495;49.922;7.966;2023-04-29T09:30:15;100097.66;;;12.05;100.00
70133;BME280;57495;49.922;7.966;2023-04-29T09:32:18;100099.56;;;12.13;100.00
70133;BME280;57495;49.922;7.966;2023-04-29T09:34:30;100090.69;;;12.12;100.00
70133;BME280;57495;49.922;7.966;2023-04-29T09:36:36;100101.47;;;12.21;100.00
70133;BME280;57495;49.922;7.966;2023-04-29T09:38:52;100105.09;;;12.29;100.00
70133;BME280;57495;49.922;7.966;2023-04-29T09:40:54;100097.97;;;12.38;100.00
70133;BME280;57495;49.922;7.966;2023-04-29T09:42:55;100105.19;;;12.37;100.00
70133;BME280;57495;49.922;7.966;2023-04-29T09:44:57;100101.38;;;12.40;100.00
70133;BME280;57495;49.922;7.966;2023-04-29T09:46:59;100108.47;;;12.31;100.00
70133;BME280;57495;49.922;7.966;2023-04-29T09:49:03;100111.69;;;12.35;100.00
70133;BME280;57495;49.922;7.966;2023-04-29T09:51:05;100103.50;;;12.54;100.00
70133;BME280;57495;49.922;7.966;2023-04-29T09:53:09;100103.59;;;12.63;100.00
70133;BME280;57495;49.922;7.966;2023-04-29T09:55:10;100119.75;;;12.35;99.44
70133;BME280;57495;49.922;7.966;2023-04-29T09:57:15;100120.81;;;12.42;99.36
70133;BME280;57495;49.922;7.966;2023-04-29T09:59:18;100123.81;;;12.57;98.41
70133;BME280;57495;49.922;7.966;2023-04-29T10:01:21;100117.91;;;12.53;99.47
70133;BME280;57495;49.922;7.966;2023-04-29T10:03:23;100127.97;;;12.51;97.70
70133;BME280;57495;49.922;7.966;2023-04-29T10:05:28;100126.19;;;12.42;95.38
70133;BME280;57495;49.922;7.966;2023-04-29T10:07:29;100120.28;;;12.56;95.51
70133;BME280;57495;49.922;7.966;2023-04-29T10:09:31;100118.00;;;12.44;94.92
70133;BME280;57495;49.922;7.966;2023-04-29T10:11:33;100123.66;;;12.41;92.88
70133;BME280;57495;49.922;7.966;2023-04-29T10:13:35;100125.88;;;12.45;92.17
70133;BME280;57495;49.922;7.966;2023-04-29T10:15:43;100125.16;;;12.97;97.21
70133;BME280;57495;49.922;7.966;2023-04-29T10:17:54;100127.50;;;13.18;93.12
70133;BME280;57495;49.922;7.966;2023-04-29T10:20:02;100121.94;;;12.93;89.29
70133;BME280;57495;49.922;7.966;2023-04-29T10:22:08;100128.00;;;12.95;89.56
70133;BME280;57495;49.922;7.966;2023-04-29T10:24:10;100125.09;;;13.07;89.90
70133;BME280;57495;49.922;7.966;2023-04-29T10:26:15;100120.81;;;13.22;90.11
70133;BME280;57495;49.922;7.966;2023-04-29T10:28:18;100115.22;;;13.33;89.20
70133;BME280;57495;49.922;7.966;2023-04-29T10:30:21;100122.97;;;13.37;87.78
70133;BME280;57495;49.922;7.966;2023-04-29T10:32:22;100124.34;;;13.49;87.38
70133;BME280;57495;49.922;7.966;2023-04-29T10:34:25;100119.00;;;13.49;87.03
70133;BME280;57495;49.922;7.966;2023-04-29T10:36:28;100121.41;;;13.60;87.49
70133;BME280;57495;49.922;7.966;2023-04-29T10:38:35;100126.53;;;13.71;87.21
70133;BME280;57495;49.922;7.966;2023-04-29T10:40:43;100121.16;;;13.80;87.63
70133;BME280;57495;49.922;7.966;2023-04-29T10:42:47;100125.78;;;13.61;85.20